createdAt,value
2019-04-21T00:01:18.252Z,96078.94
2019-04-21T00:03:53.231Z,96075.95
2019-04-21T00:06:43.952Z,96073.77
2019-04-21T00:09:14.014Z,96078.63
2019-04-21T00:11:41.302Z,96081.49
2019-04-21T00:14:05.753Z,96081.49
2019-04-21T00:16:32.142Z,96091.90
2019-04-21T00:19:24.690Z,96086.59
2019-04-21T00:21:56.381Z,96088.27
2019-04-21T00:24:33.708Z,96093.80
2019-04-21T00:27:13.894Z,96094.11
2019-04-21T00:29:49.153Z,96097.64
2019-04-21T00:32:11.487Z,96097.64
2019-04-21T00:34:27.991Z,96097.30
2019-04-21T00:37:11.064Z,96098.98
2019-04-21T00:39:56.980Z,96097.52
2019-04-21T00:42:19.952Z,96095.36
2019-04-21T00:44:51.318Z,96091.52
2019-04-21T00:47:26.738Z,96088.66
2019-04-21T00:49:56.494Z,96095.53
2019-04-21T00:52:57.583Z,96095.84
2019-04-21T00:55:36.504Z,96097.57
2019-04-21T00:58:03.499Z,96102.23
2019-04-21T01:00:36.366Z,96095.72
2019-04-21T01:03:09.394Z,96091.01
2019-04-21T01:05:43.942Z,96097.27
2019-04-21T01:08:04.700Z,96105.81
2019-04-21T01:10:28.665Z,96102.19
2019-04-21T01:13:14.000Z,96094.72
2019-04-21T01:15:47.433Z,96087.59
2019-04-21T01:18:09.090Z,96090.45
2019-04-21T01:20:20.819Z,96080.05
2019-04-21T01:22:51.509Z,96091.27
2019-04-21T01:25:30.266Z,96096.31
2019-04-21T01:28:09.975Z,96088.59
2019-04-21T01:30:44.843Z,96083.24
2019-04-21T01:33:15.344Z,96078.41
2019-04-21T01:35:44.139Z,96074.09
2019-04-21T01:38:24.168Z,96079.74
2019-04-21T01:40:57.164Z,96072.41
2019-04-21T01:43:23.432Z,96063.23
2019-04-21T01:45:53.487Z,96064.72
2019-04-21T01:48:21.537Z,96060.89
2019-04-21T01:50:58.181Z,96064.08
2019-04-21T01:53:36.465Z,96060.55
2019-04-21T01:56:30.492Z,96060.55
2019-04-21T01:58:53.240Z,96048.69
2019-04-21T02:01:34.537Z,96040.88
2019-04-21T02:04:02.730Z,96036.98
2019-04-21T02:06:33.403Z,96034.79
2019-04-21T02:09:05.125Z,96037.37
2019-04-21T02:11:43.354Z,96040.14
2019-04-21T02:14:11.635Z,96037.86
2019-04-21T02:16:40.542Z,96037.37
2019-04-21T02:19:04.813Z,96034.18
2019-04-21T02:21:37.024Z,96037.25
2019-04-21T02:24:23.926Z,96041.05
2019-04-21T02:26:45.740Z,96037.37
2019-04-21T02:29:25.402Z,96037.73
2019-04-21T02:32:07.920Z,96031.17
2019-04-21T02:34:37.405Z,96040.41
2019-04-21T02:39:29.655Z,96038.59
2019-04-21T02:44:37.653Z,96033.72
2019-04-21T02:46:54.584Z,96032.38
2019-04-21T02:52:18.235Z,96036.91
2019-04-21T03:00:06.428Z,96040.11
2019-04-21T03:02:54.691Z,96032.38
2019-04-21T03:13:21.600Z,96032.51
2019-04-21T03:15:52.923Z,96034.18
2019-04-21T03:18:12.977Z,96030.17
2019-04-21T03:20:42.161Z,96034.18
2019-04-21T03:23:36.648Z,96034.88
2019-04-21T03:28:27.859Z,96017.36
2019-04-21T03:38:31.878Z,96028.06
2019-04-21T03:40:48.882Z,96032.08
2019-04-21T03:43:31.722Z,96028.38
2019-04-21T03:46:01.251Z,96023.02
2019-04-21T03:48:36.184Z,96027.42
2019-04-21T03:50:56.331Z,96014.26
2019-04-21T03:53:31.349Z,96019.73
2019-04-21T03:58:50.486Z,96023.75
2019-04-21T04:04:05.793Z,96025.33
2019-04-21T04:06:57.076Z,96025.42
2019-04-21T04:09:26.188Z,96029.13
2019-04-21T04:16:59.411Z,96024.94
2019-04-21T04:19:26.364Z,96024.88
2019-04-21T04:21:59.113Z,96019.98
2019-04-21T04:24:39.528Z,96022.48
2019-04-21T04:27:00.966Z,96023.70
2019-04-21T04:29:24.067Z,96027.66
2019-04-21T04:31:53.482Z,96023.94
2019-04-21T04:34:29.587Z,96013.23
2019-04-21T04:37:05.359Z,96012.84
2019-04-21T04:40:05.699Z,96011.80
2019-04-21T04:45:25.725Z,95992.50
2019-04-21T04:47:36.977Z,96016.21
2019-04-21T04:50:22.589Z,96010.10
2019-04-21T04:57:51.280Z,96012.95
2019-04-21T05:12:43.845Z,96019.94
2019-04-21T05:15:12.757Z,96019.69
2019-04-21T05:17:43.520Z,96014.90
2019-04-21T05:22:42.631Z,96022.02
2019-04-21T05:25:08.673Z,96028.01
2019-04-21T05:27:38.648Z,96028.01
2019-04-21T05:30:29.576Z,96022.31
2019-04-21T05:33:23.416Z,96022.70
2019-04-21T05:35:51.935Z,96018.78
2019-04-21T05:38:31.549Z,96014.81
2019-04-21T05:40:55.165Z,96016.23
2019-04-21T05:43:41.746Z,96013.17
2019-04-21T05:46:12.423Z,96013.17
2019-04-21T05:48:47.774Z,96014.59
2019-04-21T05:51:18.133Z,96020.33
2019-04-21T05:53:46.716Z,96018.09
2019-04-21T05:56:27.254Z,96014.13
2019-04-21T05:58:52.451Z,96008.69
2019-04-21T06:01:31.472Z,96007.01
2019-04-21T06:04:01.736Z,96009.63
2019-04-21T06:06:31.033Z,96004.34
2019-04-21T06:08:53.967Z,96003.59
2019-04-21T06:11:30.679Z,95998.55
2019-04-21T06:14:04.411Z,96000.66
2019-04-21T06:16:41.311Z,96005.28
2019-04-21T06:19:06.688Z,96001.53
2019-04-21T06:21:35.963Z,95997.23
2019-04-21T06:24:02.514Z,96005.36
2019-04-21T06:29:02.771Z,96001.67
2019-04-21T06:32:02.381Z,96003.25
2019-04-21T06:34:11.373Z,95994.80
2019-04-21T06:36:57.302Z,95991.17
2019-04-21T06:39:28.332Z,95990.97
2019-04-21T06:41:55.674Z,95988.64
2019-04-21T06:44:24.016Z,95983.64
2019-04-21T06:47:02.653Z,95982.30
2019-04-21T06:49:27.408Z,95988.67
2019-04-21T06:52:11.304Z,95986.69
2019-04-21T06:54:33.898Z,95984.87
2019-04-21T06:56:56.582Z,95992.03
2019-04-21T06:59:37.200Z,95991.34
2019-04-21T07:02:28.716Z,95990.90
2019-04-21T07:04:39.561Z,95990.69
2019-04-21T07:07:05.617Z,95985.36
2019-04-21T07:09:36.500Z,95989.19
2019-04-21T07:12:06.206Z,95985.48
2019-04-21T07:14:54.725Z,95983.84
2019-04-21T07:22:21.095Z,95978.20
2019-04-21T07:24:45.839Z,95974.88
2019-04-21T07:27:15.231Z,95970.67
2019-04-21T07:29:50.559Z,95974.81
2019-04-21T07:32:18.444Z,95977.17
2019-04-21T07:34:52.275Z,95975.14
2019-04-21T07:37:19.745Z,95970.29
2019-04-21T07:39:45.209Z,95971.89
2019-04-21T07:42:17.469Z,95975.21
2019-04-21T07:44:46.369Z,95970.90
2019-04-21T07:47:27.133Z,95968.33
2019-04-21T07:50:07.092Z,95963.50
2019-04-21T07:57:53.133Z,95958.50
2019-04-21T08:00:30.900Z,95962.51
2019-04-21T08:02:54.457Z,95961.78
2019-04-21T08:05:27.946Z,95960.07
2019-04-21T08:07:55.803Z,95958.63
2019-04-21T08:10:26.301Z,95956.27
2019-04-21T08:13:01.175Z,95952.06
2019-04-21T08:15:38.654Z,95952.39
2019-04-21T08:18:03.727Z,95945.38
2019-04-21T08:20:29.118Z,95936.16
2019-04-21T08:23:07.620Z,95930.65
2019-04-21T08:25:50.825Z,95931.30
2019-04-21T08:28:05.368Z,95933.63
2019-04-21T08:30:38.109Z,95923.89
2019-04-21T08:33:18.780Z,95923.28
2019-04-21T08:38:13.569Z,95922.69
2019-04-21T08:40:51.084Z,95923.77
2019-04-21T08:43:21.711Z,95913.34
2019-04-21T08:45:49.806Z,95915.11
2019-04-21T08:48:18.183Z,95904.64
2019-04-21T08:50:55.054Z,95899.91
2019-04-21T08:53:22.651Z,95900.67
2019-04-21T08:56:21.711Z,95906.45
2019-04-21T08:59:30.925Z,95901.88
2019-04-21T09:02:29.729Z,95904.67
2019-04-21T09:04:52.774Z,95862.19
2019-04-21T09:07:33.136Z,95884.55
2019-04-21T09:09:58.046Z,95881.52
2019-04-21T09:12:33.128Z,95879.78
2019-04-21T09:15:02.717Z,95870.44
2019-04-21T09:17:25.165Z,95870.25
2019-04-21T09:22:37.136Z,95868.25
2019-04-21T09:25:01.466Z,95866.01
2019-04-21T09:27:32.302Z,95858.62
2019-04-21T09:29:55.314Z,95856.08
2019-04-21T09:32:23.896Z,95855.98
2019-04-21T09:34:52.738Z,95851.36
2019-04-21T09:37:37.177Z,95842.43
2019-04-21T09:39:55.905Z,95839.36
2019-04-21T09:42:32.843Z,95836.88
2019-04-21T09:45:00.874Z,95827.97
2019-04-21T09:47:36.533Z,95825.08
2019-04-21T09:49:58.556Z,95822.41
2019-04-21T09:52:38.907Z,95820.55
2019-04-21T09:55:06.881Z,95816.35
2019-04-21T09:57:38.181Z,95812.34
2019-04-21T10:00:12.000Z,95812.52
2019-04-21T10:02:42.302Z,95805.02
2019-04-21T10:05:05.341Z,95805.25
2019-04-21T10:07:39.068Z,95801.06
2019-04-21T10:10:06.396Z,95802.88
2019-04-21T10:12:37.244Z,95793.86
2019-04-21T10:15:08.414Z,95786.44
2019-04-21T10:17:41.911Z,95789.11
2019-04-21T10:20:11.798Z,95784.28
2019-04-21T10:22:41.464Z,95784.50
2019-04-21T10:25:10.851Z,95778.75
2019-04-21T10:27:41.272Z,95779.75
2019-04-21T10:30:11.966Z,95774.03
2019-04-21T10:32:42.653Z,95770.95
2019-04-21T10:35:12.869Z,95769.62
2019-04-21T10:37:53.643Z,95770.22
2019-04-21T10:40:13.800Z,95762.01
2019-04-21T10:42:43.599Z,95756.02
2019-04-21T10:45:13.027Z,95746.48
2019-04-21T10:47:43.041Z,95747.08
2019-04-21T10:50:13.096Z,95748.42
2019-04-21T10:53:16.705Z,95742.36
2019-04-21T10:56:01.475Z,95733.11
2019-04-21T10:58:36.401Z,95730.02
2019-04-21T11:01:23.255Z,95732.70
2019-04-21T11:04:27.080Z,95730.73
2019-04-21T11:06:52.663Z,95727.13
2019-04-21T11:09:22.153Z,95719.33
2019-04-21T11:11:53.381Z,95722.59
2019-04-21T11:14:23.165Z,95720.44
2019-04-21T11:16:53.420Z,95715.61
2019-04-21T11:19:24.271Z,95716.65
2019-04-21T11:21:54.684Z,95707.59
2019-04-21T11:24:25.028Z,95709.86
2019-04-21T11:26:55.821Z,95707.81
2019-04-21T11:29:26.349Z,95698.15
2019-04-21T11:31:56.893Z,95702.16
2019-04-21T11:34:27.313Z,95697.52
2019-04-21T11:36:56.748Z,95701.45
2019-04-21T11:39:39.155Z,95692.50
2019-04-21T11:42:01.707Z,95685.41
2019-04-21T11:44:31.254Z,95689.61
2019-04-21T11:47:00.642Z,95687.15
2019-04-21T11:49:32.388Z,95686.63
2019-04-21T11:52:02.840Z,95682.09
2019-04-21T11:54:32.903Z,95686.63
2019-04-21T11:57:11.732Z,95684.55
2019-04-21T11:59:33.551Z,95681.28
2019-04-21T12:02:03.551Z,95673.96
2019-04-21T12:04:33.696Z,95677.67
2019-04-21T12:07:03.112Z,95664.41
2019-04-21T12:09:33.346Z,95666.67
2019-04-21T12:12:03.404Z,95664.81
2019-04-21T12:14:34.103Z,95662.66
2019-04-21T12:17:03.626Z,95664.70
2019-04-21T12:19:33.060Z,95663.48
2019-04-21T12:22:10.988Z,95659.77
2019-04-21T12:24:36.830Z,95661.33
2019-04-21T12:27:07.777Z,95654.94
2019-04-21T12:29:37.810Z,95650.10
2019-04-21T12:32:32.164Z,95653.89
2019-04-21T12:35:01.912Z,95653.70
2019-04-21T12:37:31.307Z,95636.09
2019-04-21T12:40:00.885Z,95636.09
2019-04-21T12:42:30.406Z,95636.31
2019-04-21T12:44:59.838Z,95633.26
2019-04-21T12:47:30.204Z,95634.37
2019-04-21T12:49:59.673Z,95633.36
2019-04-21T12:52:29.488Z,95626.34
2019-04-21T12:54:59.687Z,95623.89
2019-04-21T12:57:31.489Z,95628.20
2019-04-21T13:00:00.566Z,95618.84
2019-04-21T13:02:30.038Z,95620.17
2019-04-21T13:04:59.779Z,95621.38
2019-04-21T13:07:29.196Z,95617.06
2019-04-21T13:10:00.036Z,95614.91
2019-04-21T13:12:29.523Z,95611.19
2019-04-21T13:14:59.601Z,95611.19
2019-04-21T13:17:31.078Z,95603.16
2019-04-21T13:20:01.183Z,95608.52
2019-04-21T13:22:32.002Z,95601.53
2019-04-21T13:25:02.429Z,95611.00
2019-04-21T13:27:31.959Z,95608.47
2019-04-21T13:30:02.196Z,95596.28
2019-04-21T13:32:33.079Z,95595.66
2019-04-21T13:35:03.342Z,95590.02
2019-04-21T13:37:33.282Z,95588.78
2019-04-21T13:40:44.959Z,95586.43
2019-04-21T13:43:03.922Z,95591.89
2019-04-21T13:45:32.077Z,95582.42
2019-04-21T13:48:01.682Z,95589.41
2019-04-21T13:50:31.324Z,95588.17
2019-04-21T13:53:00.979Z,95587.16
2019-04-21T13:55:31.865Z,95583.55
2019-04-21T13:58:02.092Z,95582.07
2019-04-21T14:00:31.911Z,95575.06
2019-04-21T14:03:02.823Z,95573.89
2019-04-21T14:05:32.673Z,95574.62
2019-04-21T14:08:03.106Z,95567.80
2019-04-21T14:10:33.514Z,95572.06
2019-04-21T14:13:02.929Z,95571.81
2019-04-21T14:15:32.502Z,95568.73
2019-04-21T14:18:02.811Z,95564.42
2019-04-21T14:20:33.292Z,95557.92
2019-04-21T14:23:13.511Z,95556.30
2019-04-21T14:25:35.305Z,95548.69
2019-04-21T14:28:06.100Z,95553.00
2019-04-21T14:30:36.516Z,95553.41
2019-04-21T14:33:05.955Z,95542.94
2019-04-21T14:35:36.633Z,95542.93
2019-04-21T14:38:06.937Z,95545.31
2019-04-21T14:40:37.356Z,95539.24
2019-04-21T14:43:08.028Z,95534.30
2019-04-21T14:46:02.962Z,95532.66
2019-04-21T14:49:03.618Z,95527.31
2019-04-21T14:51:47.532Z,95528.97
2019-04-21T14:54:44.586Z,95534.75
2019-04-21T14:57:15.416Z,95532.27
2019-04-21T14:59:45.022Z,95529.39
2019-04-21T15:02:15.758Z,95529.39
2019-04-21T15:04:45.905Z,95529.27
2019-04-21T15:07:15.368Z,95526.50
2019-04-21T15:09:46.361Z,95512.89
2019-04-21T15:12:16.286Z,95509.01
2019-04-21T15:14:47.672Z,95509.53
2019-04-21T15:17:19.519Z,95502.84
2019-04-21T15:19:50.975Z,95500.97
2019-04-21T15:22:20.725Z,95513.84
2019-04-21T15:24:52.123Z,95516.52
2019-04-21T15:27:25.139Z,95518.67
2019-04-21T15:29:54.554Z,95512.75
2019-04-21T15:32:24.292Z,95507.78
2019-04-21T15:34:54.093Z,95500.20
2019-04-21T15:37:24.133Z,95505.03
2019-04-21T15:39:53.567Z,95503.77
2019-04-21T15:42:24.340Z,95499.50
2019-04-21T15:44:54.631Z,95499.24
2019-04-21T15:47:24.101Z,95496.67
2019-04-21T15:50:04.630Z,95498.33
2019-04-21T15:52:29.881Z,95496.08
2019-04-21T15:55:18.902Z,95494.31
2019-04-21T15:58:00.589Z,95490.00
2019-04-21T16:00:40.513Z,95487.03
2019-04-21T16:05:38.626Z,95478.38
2019-04-21T16:08:08.095Z,95481.06
2019-04-21T16:10:45.327Z,95479.00
2019-04-21T16:13:09.808Z,95479.91
2019-04-21T16:15:40.760Z,95478.77
2019-04-21T16:18:10.350Z,95475.67
2019-04-21T16:20:39.954Z,95479.20
2019-04-21T16:23:10.718Z,95471.39
2019-04-21T16:25:41.141Z,95467.25
2019-04-21T16:28:11.138Z,95470.64
2019-04-21T16:30:40.816Z,95466.95
2019-04-21T16:33:10.272Z,95471.56
2019-04-21T16:35:40.001Z,95469.30
2019-04-21T16:38:09.461Z,95471.13
2019-04-21T16:40:46.873Z,95467.80
2019-04-21T16:43:10.131Z,95466.97
2019-04-21T16:45:41.007Z,95467.19
2019-04-21T16:48:10.579Z,95463.38
2019-04-21T16:50:41.423Z,95461.88
2019-04-21T16:53:17.489Z,95464.73
2019-04-21T16:55:51.190Z,95457.29
2019-04-21T16:58:30.824Z,95462.19
2019-04-21T17:01:10.231Z,95461.56
2019-04-21T17:03:34.808Z,95458.50
2019-04-21T17:06:05.142Z,95467.13
2019-04-21T17:08:36.710Z,95468.56
2019-04-21T17:11:16.471Z,95466.45
2019-04-21T17:13:38.303Z,95459.17
2019-04-21T17:16:36.459Z,95473.28
2019-04-21T17:18:50.822Z,95469.56
2019-04-21T17:21:11.114Z,95470.08
2019-04-21T17:23:41.386Z,95480.50
2019-04-21T17:26:11.070Z,95477.30
2019-04-21T17:28:40.790Z,95478.93
2019-04-21T17:31:10.977Z,95477.59
2019-04-21T17:33:41.413Z,95475.73
2019-04-21T17:36:11.504Z,95481.94
2019-04-21T17:38:41.859Z,95485.03
2019-04-21T17:41:21.847Z,95485.95
2019-04-21T17:43:43.657Z,95482.55
2019-04-21T17:46:20.332Z,95481.13
2019-04-21T17:48:45.149Z,95485.14
2019-04-21T17:51:31.964Z,95482.16
2019-04-21T17:54:16.717Z,95482.16
2019-04-21T17:57:16.285Z,95489.38
2019-04-21T17:59:47.639Z,95488.14
2019-04-21T18:02:02.245Z,95490.92
2019-04-21T18:04:31.037Z,95494.94
2019-04-21T18:07:08.143Z,95503.69
2019-04-21T18:09:51.120Z,95504.86
2019-04-21T18:12:12.307Z,95498.42
2019-04-21T18:14:28.476Z,95504.17
2019-04-21T18:16:58.323Z,95507.70
2019-04-21T18:19:31.022Z,95507.18
2019-04-21T18:22:31.277Z,95508.75
2019-04-21T18:25:03.674Z,95509.37
2019-04-21T18:27:28.352Z,95517.17
2019-04-21T18:30:02.494Z,95522.55
2019-04-21T18:32:38.555Z,95524.61
2019-04-21T18:35:22.726Z,95511.87
2019-04-21T18:38:22.757Z,95518.86
2019-04-21T18:40:49.060Z,95523.92
2019-04-21T18:46:43.813Z,95526.80
2019-04-21T18:49:11.209Z,95526.08
2019-04-21T18:52:06.863Z,95523.40
2019-04-21T18:54:45.834Z,95531.62
2019-04-21T18:57:10.579Z,95529.47
2019-04-21T18:59:37.793Z,95529.66
2019-04-21T19:02:06.870Z,95537.00
2019-04-21T19:04:37.123Z,95541.31
2019-04-21T19:07:20.073Z,95541.52
2019-04-21T19:12:47.347Z,95549.77
2019-04-21T19:14:55.001Z,95552.84
2019-04-21T19:18:05.242Z,95559.86
2019-04-21T19:20:10.433Z,95558.72
2019-04-21T19:22:32.520Z,95558.84
2019-04-21T19:25:07.293Z,95559.25
2019-04-21T19:27:31.109Z,95558.92
2019-04-21T19:30:17.701Z,95556.35
2019-04-21T19:32:33.488Z,95555.53
2019-04-21T19:34:54.897Z,95553.17
2019-04-21T19:37:25.906Z,95550.80
2019-04-21T19:40:05.674Z,95557.80
2019-04-21T19:42:35.416Z,95551.42
2019-04-21T19:45:10.777Z,95556.25
2019-04-21T19:47:44.986Z,95551.31
2019-04-21T19:50:16.853Z,95555.55
2019-04-21T19:52:40.546Z,95550.80
2019-04-21T19:55:00.576Z,95547.00
2019-04-21T19:57:31.339Z,95547.83
2019-04-21T20:00:04.322Z,95546.38
2019-04-21T20:02:32.355Z,95546.27
2019-04-21T20:05:07.006Z,95551.10
2019-04-21T20:07:49.452Z,95540.38
2019-04-21T20:10:27.013Z,95538.64
2019-04-21T20:12:53.702Z,95534.73
2019-04-21T20:15:33.015Z,95534.33
2019-04-21T20:17:57.549Z,95537.00
2019-04-21T20:20:11.110Z,95535.34
2019-04-21T20:22:44.069Z,95533.70
2019-04-21T20:25:16.117Z,95530.21
2019-04-21T20:27:54.553Z,95532.08
2019-04-21T20:30:31.076Z,95532.89
2019-04-21T20:33:04.572Z,95532.08
2019-04-21T20:38:04.779Z,95529.59
2019-04-21T20:40:31.803Z,95530.51
2019-04-21T20:43:08.632Z,95535.05
2019-04-21T20:45:41.722Z,95540.19
2019-04-21T20:47:54.619Z,95538.86
2019-04-21T20:50:36.376Z,95536.08
2019-04-21T20:53:11.032Z,95539.48
2019-04-21T20:55:39.488Z,95537.42
2019-04-21T20:58:09.136Z,95536.80
2019-04-21T21:01:03.007Z,95536.50
2019-04-21T21:03:23.403Z,95538.56
2019-04-21T21:05:45.791Z,95537.74
2019-04-21T21:08:26.036Z,95540.84
2019-04-21T21:10:43.935Z,95538.68
2019-04-21T21:13:26.696Z,95543.19
2019-04-21T21:16:06.189Z,95545.05
2019-04-21T21:18:38.021Z,95538.36
2019-04-21T21:20:54.142Z,95543.52
2019-04-21T21:23:20.434Z,95534.14
2019-04-21T21:25:57.311Z,95532.28
2019-04-21T21:28:29.083Z,95538.68
2019-04-21T21:30:59.384Z,95533.33
2019-04-21T21:33:30.715Z,95539.59
2019-04-21T21:36:06.450Z,95536.92
2019-04-21T21:38:31.532Z,95541.95
2019-04-21T21:40:56.936Z,95544.95
2019-04-21T21:43:22.897Z,95539.27
2019-04-21T21:45:55.571Z,95537.74
2019-04-21T21:48:31.705Z,95537.41
2019-04-21T21:51:02.262Z,95534.35
2019-04-21T21:53:25.484Z,95536.59
2019-04-21T21:55:53.692Z,95539.17
2019-04-21T21:58:28.635Z,95534.34
2019-04-21T22:00:58.486Z,95534.25
2019-04-21T22:03:33.019Z,95532.06
2019-04-21T22:06:02.351Z,95530.42
2019-04-21T22:08:28.268Z,95528.80
2019-04-21T22:10:58.982Z,95527.35
2019-04-21T22:13:39.960Z,95527.35
2019-04-21T22:16:06.049Z,95526.31
2019-04-21T22:18:43.944Z,95527.75
2019-04-21T22:21:13.877Z,95531.25
2019-04-21T22:23:46.974Z,95528.89
2019-04-21T22:26:05.223Z,95531.14
2019-04-21T22:28:35.950Z,95537.02
2019-04-21T22:31:13.161Z,95535.48
2019-04-21T22:33:41.928Z,95529.48
2019-04-21T22:36:21.027Z,95532.08
2019-04-21T22:38:54.918Z,95530.95
2019-04-21T22:41:22.068Z,95525.47
2019-04-21T22:43:46.141Z,95524.66
2019-04-21T22:46:15.471Z,95524.36
2019-04-21T22:48:52.248Z,95525.05
2019-04-21T22:51:23.981Z,95525.18
2019-04-21T22:53:50.781Z,95530.23
2019-04-21T22:56:24.454Z,95530.83
2019-04-21T22:58:51.079Z,95526.22
2019-04-21T23:01:30.096Z,95523.02
2019-04-21T23:03:56.922Z,95521.16
2019-04-21T23:06:27.542Z,95515.00
2019-04-21T23:08:55.126Z,95512.41
2019-04-21T23:11:29.238Z,95514.17
2019-04-21T23:14:03.754Z,95511.80
2019-04-21T23:16:32.225Z,95514.27
2019-04-21T23:19:17.264Z,95509.54
2019-04-21T23:21:51.232Z,95507.16
2019-04-21T23:24:26.144Z,95506.24
2019-04-21T23:26:50.730Z,95494.59
2019-04-21T23:29:25.725Z,95495.86
2019-04-21T23:31:51.797Z,95502.45
2019-04-21T23:34:06.294Z,95502.23
2019-04-21T23:36:41.021Z,95504.28
2019-04-21T23:39:19.516Z,95498.73
2019-04-21T23:41:42.395Z,95498.31
2019-04-21T23:44:13.689Z,95495.95
2019-04-21T23:46:42.625Z,95494.62
2019-04-21T23:49:23.146Z,95492.47
2019-04-21T23:51:51.163Z,95490.83
2019-04-21T23:54:15.611Z,95493.18
2019-04-21T23:56:47.540Z,95495.95
2019-04-21T23:59:17.973Z,95491.13
